createdAt,value
2023-04-10T00:00:11.738Z,92.03
2023-04-10T00:03:03.303Z,92.15
2023-04-10T00:05:31.421Z,92.11
2023-04-10T00:07:59.113Z,92.16
2023-04-10T00:10:29.260Z,92.04
2023-04-10T00:12:57.582Z,92.03
2023-04-10T00:15:25.388Z,92.08
2023-04-10T00:17:55.356Z,92.21
2023-04-10T00:20:26.065Z,92.25
2023-04-10T00:22:54.525Z,92.24
2023-04-10T00:25:23.104Z,92.28
2023-04-10T00:27:50.879Z,92.37
2023-04-10T00:30:19.644Z,92.47
2023-04-10T00:32:47.782Z,92.60
2023-04-10T00:35:15.651Z,93.24
2023-04-10T00:37:43.301Z,93.33
2023-04-10T00:40:11.289Z,93.44
2023-04-10T00:42:39.720Z,93.53
2023-04-10T00:45:07.771Z,93.53
2023-04-10T00:47:37.738Z,93.36
2023-04-10T00:50:06.398Z,93.49
2023-04-10T00:52:34.553Z,93.32
2023-04-10T00:55:02.376Z,93.08
2023-04-10T00:57:30.089Z,93.05
2023-04-10T00:59:58.179Z,93.13
2023-04-10T01:02:27.032Z,93.06
2023-04-10T01:04:54.892Z,93.13
2023-04-10T01:07:40.395Z,92.92
2023-04-10T01:10:15.687Z,92.95
2023-04-10T01:12:49.403Z,93.04
2023-04-10T01:15:18.954Z,93.14
2023-04-10T01:17:57.229Z,93.13
2023-04-10T01:20:26.657Z,92.98
2023-04-10T01:23:09.488Z,93.04
2023-04-10T01:25:43.510Z,93.02
2023-04-10T01:28:28.460Z,92.95
2023-04-10T01:31:01.285Z,93.05
2023-04-10T01:33:37.519Z,93.02
2023-04-10T01:36:06.557Z,93.09
2023-04-10T01:38:36.252Z,93.28
2023-04-10T01:41:05.327Z,93.34
2023-04-10T01:43:34.239Z,93.37
2023-04-10T01:46:03.858Z,93.49
2023-04-10T01:48:31.781Z,93.42
2023-04-10T01:51:01.622Z,93.21
2023-04-10T01:53:31.425Z,93.24
2023-04-10T01:55:59.878Z,93.40
2023-04-10T01:58:27.612Z,93.38
2023-04-10T02:00:57.232Z,93.17
2023-04-10T02:03:25.326Z,93.32
2023-04-10T02:06:10.338Z,93.47
2023-04-10T02:08:41.300Z,93.59
2023-04-10T02:11:22.639Z,93.88
2023-04-10T02:13:54.094Z,93.81
2023-04-10T02:16:22.683Z,94.03
2023-04-10T02:18:51.611Z,93.93
2023-04-10T02:21:19.385Z,93.95
2023-04-10T02:23:47.086Z,93.90
2023-04-10T02:26:16.414Z,93.82
2023-04-10T02:28:44.110Z,93.89
2023-04-10T02:31:11.861Z,93.98
2023-04-10T02:33:39.656Z,93.95
2023-04-10T02:36:07.757Z,93.85
2023-04-10T02:38:35.700Z,93.90
2023-04-10T02:41:03.562Z,93.93
2023-04-10T02:43:31.373Z,94.00
2023-04-10T02:45:59.971Z,94.05
2023-04-10T02:48:28.970Z,93.97
2023-04-10T02:51:00.227Z,94.08
2023-04-10T02:53:29.420Z,94.04
2023-04-10T02:55:59.479Z,93.99
2023-04-10T02:58:27.926Z,93.89
2023-04-10T03:00:57.819Z,93.94
2023-04-10T03:03:51.506Z,93.93
2023-04-10T03:06:28.712Z,93.75
2023-04-10T03:08:57.369Z,93.80
2023-04-10T03:11:25.065Z,93.75
2023-04-10T03:13:53.238Z,93.91
2023-04-10T03:16:21.207Z,93.82
2023-04-10T03:18:49.173Z,94.04
2023-04-10T03:21:17.189Z,94.17
2023-04-10T03:23:44.878Z,94.06
2023-04-10T03:26:12.558Z,93.89
2023-04-10T03:28:41.352Z,94.03
2023-04-10T03:31:12.269Z,94.35
2023-04-10T03:33:41.179Z,94.58
2023-04-10T03:36:09.239Z,94.44
2023-04-10T03:38:37.048Z,94.20
2023-04-10T03:41:05.500Z,94.42
2023-04-10T03:43:33.777Z,94.47
2023-04-10T03:46:02.459Z,94.75
2023-04-10T03:48:31.772Z,94.45
2023-04-10T03:50:59.742Z,94.27
2023-04-10T03:53:27.784Z,94.01
2023-04-10T03:55:56.040Z,93.98
2023-04-10T03:58:24.844Z,94.23
2023-04-10T04:00:53.145Z,94.54
2023-04-10T04:03:31.154Z,94.62
2023-04-10T04:06:07.414Z,94.64
2023-04-10T04:08:36.438Z,94.64
2023-04-10T04:11:20.257Z,94.72
2023-04-10T04:13:58.784Z,94.72
2023-04-10T04:16:47.235Z,94.86
2023-04-10T04:19:30.144Z,95.04
2023-04-10T04:22:15.293Z,94.92
2023-04-10T04:25:01.735Z,95.01
2023-04-10T04:27:41.704Z,95.07
2023-04-10T04:30:32.537Z,95.12
2023-04-10T04:33:16.231Z,95.15
2023-04-10T04:36:10.334Z,94.98
2023-04-10T04:38:55.667Z,94.95
2023-04-10T04:41:39.274Z,94.89
2023-04-10T04:44:23.987Z,95.19
2023-04-10T04:47:07.629Z,95.24
2023-04-10T04:49:51.369Z,95.37
2023-04-10T04:52:30.629Z,95.34
2023-04-10T04:55:12.848Z,95.46
2023-04-10T04:57:54.790Z,95.48
2023-04-10T05:00:30.806Z,95.65
2023-04-10T05:03:08.479Z,95.86
2023-04-10T05:05:42.584Z,96.11
2023-04-10T05:08:26.523Z,96.16
2023-04-10T05:11:03.777Z,96.34
2023-04-10T05:13:47.378Z,96.37
2023-04-10T05:16:31.068Z,96.42
2023-04-10T05:19:14.981Z,96.59
2023-04-10T05:21:58.710Z,96.88
2023-04-10T05:24:42.464Z,96.80
2023-04-10T05:27:22.707Z,96.91
2023-04-10T05:30:06.837Z,97.37
2023-04-10T05:32:41.803Z,97.25
2023-04-10T05:35:25.651Z,97.38
2023-04-10T05:38:09.511Z,97.38
2023-04-10T05:40:54.117Z,97.49
2023-04-10T05:43:37.838Z,97.73
2023-04-10T05:46:28.359Z,97.83
2023-04-10T05:49:12.054Z,98.01
2023-04-10T05:51:55.784Z,98.06
2023-04-10T05:54:39.659Z,98.16
2023-04-10T05:57:22.106Z,97.93
2023-04-10T06:00:03.734Z,97.85
2023-04-10T06:02:47.546Z,98.11
2023-04-10T06:05:21.554Z,98.52
2023-04-10T06:07:49.642Z,98.35
2023-04-10T06:10:17.304Z,98.19
2023-04-10T06:12:45.603Z,97.96
2023-04-10T06:15:14.666Z,97.99
2023-04-10T06:17:46.238Z,98.16
2023-04-10T06:20:14.147Z,98.09
2023-04-10T06:22:41.876Z,98.28
2023-04-10T06:25:09.943Z,98.48
2023-04-10T06:27:37.725Z,98.45
2023-04-10T06:30:06.153Z,98.58
2023-04-10T06:32:33.935Z,98.73
2023-04-10T06:35:02.565Z,98.36
2023-04-10T06:37:34.033Z,98.60
2023-04-10T06:40:07.275Z,98.44
2023-04-10T06:42:35.267Z,98.48
2023-04-10T06:45:09.435Z,97.95
2023-04-10T06:47:37.148Z,97.93
2023-04-10T06:50:05.329Z,97.74
2023-04-10T06:52:33.043Z,97.55
2023-04-10T06:55:00.865Z,97.76
2023-04-10T06:57:28.853Z,97.80
2023-04-10T06:59:56.733Z,97.59
2023-04-10T07:02:24.661Z,97.64
2023-04-10T07:04:53.690Z,97.48
2023-04-10T07:07:21.751Z,97.46
2023-04-10T07:09:49.496Z,97.47
2023-04-10T07:12:17.181Z,97.65
2023-04-10T07:14:44.905Z,97.37
2023-04-10T07:17:12.645Z,97.52
2023-04-10T07:19:40.518Z,97.20
2023-04-10T07:22:08.232Z,97.10
2023-04-10T07:24:36.208Z,97.15
2023-04-10T07:27:03.996Z,97.10
2023-04-10T07:29:31.760Z,97.10
2023-04-10T07:31:59.640Z,97.04
2023-04-10T07:34:27.588Z,97.04
2023-04-10T07:36:55.276Z,96.80
2023-04-10T07:39:22.956Z,96.70
2023-04-10T07:41:52.830Z,96.83
2023-04-10T07:44:20.588Z,96.60
2023-04-10T07:46:48.314Z,96.37
2023-04-10T07:49:16.224Z,96.51
2023-04-10T07:51:43.953Z,96.70
2023-04-10T07:54:11.640Z,96.53
2023-04-10T07:56:39.346Z,96.39
2023-04-10T07:59:07.057Z,96.70
2023-04-10T08:01:34.792Z,96.71
2023-04-10T08:04:05.597Z,96.59
2023-04-10T08:06:33.912Z,96.26
2023-04-10T08:09:02.144Z,96.54
2023-04-10T08:11:35.267Z,96.57
2023-04-10T08:14:05.427Z,96.49
2023-04-10T08:16:35.616Z,96.35
2023-04-10T08:19:03.748Z,96.04
2023-04-10T08:21:32.177Z,95.93
2023-04-10T08:24:03.777Z,95.71
2023-04-10T08:26:31.550Z,95.84
2023-04-10T08:29:00.636Z,95.66
2023-04-10T08:31:28.927Z,95.57
2023-04-10T08:33:57.425Z,94.93
2023-04-10T08:36:26.596Z,95.02
2023-04-10T08:38:54.333Z,94.74
2023-04-10T08:41:22.097Z,94.54
2023-04-10T08:43:50.926Z,94.46
2023-04-10T08:46:18.679Z,94.27
2023-04-10T08:48:55.043Z,94.56
2023-04-10T08:51:26.774Z,94.37
2023-04-10T08:53:58.410Z,94.26
2023-04-10T08:56:26.850Z,94.21
2023-04-10T08:58:54.830Z,93.98
2023-04-10T09:01:23.018Z,93.87
2023-04-10T09:03:51.443Z,93.70
2023-04-10T09:06:19.334Z,93.55
2023-04-10T09:08:46.993Z,93.51
2023-04-10T09:11:14.706Z,93.47
2023-04-10T09:13:43.869Z,93.17
2023-04-10T09:16:14.957Z,93.52
2023-04-10T09:18:42.902Z,93.24
2023-04-10T09:21:11.839Z,93.20
2023-04-10T09:23:41.065Z,93.26
2023-04-10T09:26:24.682Z,93.14
2023-04-10T09:28:56.783Z,92.93
2023-04-10T09:31:32.084Z,92.61
2023-04-10T09:34:16.079Z,92.88
2023-04-10T09:36:44.897Z,92.52
2023-04-10T09:39:12.795Z,92.02
2023-04-10T09:41:47.962Z,92.11
2023-04-10T09:44:17.232Z,92.07
2023-04-10T09:46:45.502Z,92.43
2023-04-10T09:49:13.297Z,92.43
2023-04-10T09:51:42.606Z,92.19
2023-04-10T09:54:10.306Z,91.79
2023-04-10T09:56:38.945Z,91.86
2023-04-10T09:59:07.440Z,91.78
2023-04-10T10:01:37.556Z,91.43
2023-04-10T10:04:05.725Z,91.44
2023-04-10T10:06:33.617Z,91.72
2023-04-10T10:09:02.910Z,91.66
2023-04-10T10:11:35.408Z,91.52
2023-04-10T10:14:06.764Z,91.15
2023-04-10T10:16:40.394Z,90.56
2023-04-10T10:19:24.580Z,90.39
2023-04-10T10:21:53.257Z,89.26
2023-04-10T10:24:23.482Z,89.62
2023-04-10T10:26:51.881Z,89.76
2023-04-10T10:29:21.306Z,89.58
2023-04-10T10:31:49.388Z,89.42
2023-04-10T10:34:17.702Z,89.27
2023-04-10T10:36:45.690Z,88.60
2023-04-10T10:39:30.400Z,89.42
2023-04-10T10:42:14.021Z,88.89
2023-04-10T10:44:47.944Z,88.45
2023-04-10T10:47:18.361Z,88.46
2023-04-10T10:50:01.974Z,88.59
2023-04-10T10:52:46.040Z,88.99
2023-04-10T10:55:34.702Z,88.34
2023-04-10T10:58:03.462Z,88.25
2023-04-10T11:00:55.015Z,87.76
2023-04-10T11:03:22.997Z,87.35
2023-04-10T11:05:58.624Z,87.90
2023-04-10T11:08:46.792Z,87.41
2023-04-10T11:11:15.941Z,87.42
2023-04-10T11:13:49.859Z,87.84
2023-04-10T11:16:18.421Z,87.10
2023-04-10T11:18:46.179Z,86.75
2023-04-10T11:21:15.514Z,86.61
2023-04-10T11:23:59.411Z,86.94
2023-04-10T11:26:33.232Z,86.44
2023-04-10T11:29:01.562Z,85.89
2023-04-10T11:31:29.536Z,85.10
2023-04-10T11:33:59.947Z,85.42
2023-04-10T11:36:27.898Z,84.45
2023-04-10T11:39:00.013Z,84.61
2023-04-10T11:41:34.705Z,84.54
2023-04-10T11:44:03.630Z,84.70
2023-04-10T11:46:31.782Z,84.65
2023-04-10T11:49:00.579Z,84.35
2023-04-10T11:51:28.708Z,83.00
2023-04-10T11:54:12.466Z,83.60
2023-04-10T11:56:41.499Z,83.85
2023-04-10T11:59:11.040Z,84.14
2023-04-10T12:01:42.701Z,82.30
2023-04-10T12:04:14.513Z,82.10
2023-04-10T12:06:46.902Z,81.81
2023-04-10T12:09:15.981Z,81.65
2023-04-10T12:11:59.750Z,81.45
2023-04-10T12:14:33.567Z,80.07
2023-04-10T12:17:02.423Z,80.81
2023-04-10T12:19:30.858Z,80.72
2023-04-10T12:21:59.575Z,79.16
2023-04-10T12:24:43.627Z,79.70
2023-04-10T12:27:27.674Z,77.64
2023-04-10T12:29:56.959Z,77.37
2023-04-10T12:32:25.617Z,77.82
2023-04-10T12:34:57.249Z,62.09
2023-04-10T12:37:28.459Z,77.14
2023-04-10T12:40:12.077Z,76.84
2023-04-10T12:42:40.252Z,77.35
2023-04-10T12:45:10.002Z,76.95
2023-04-10T12:47:53.872Z,77.40
2023-04-10T12:50:22.227Z,77.01
2023-04-10T12:53:11.848Z,77.13
2023-04-10T12:55:42.117Z,76.17
2023-04-10T12:58:18.045Z,76.59
2023-04-10T13:00:47.091Z,76.79
2023-04-10T13:03:18.594Z,76.42
2023-04-10T13:05:47.007Z,76.10
2023-04-10T13:08:14.866Z,75.78
2023-04-10T13:10:43.563Z,75.55
2023-04-10T13:13:12.963Z,75.94
2023-04-10T13:15:40.949Z,75.79
2023-04-10T13:18:10.404Z,75.85
2023-04-10T13:20:39.698Z,75.75
2023-04-10T13:23:07.942Z,75.66
2023-04-10T13:25:39.643Z,76.01
2023-04-10T13:28:15.728Z,76.08
2023-04-10T13:30:43.458Z,76.14
2023-04-10T13:33:11.260Z,76.02
2023-04-10T13:35:40.464Z,76.18
2023-04-10T13:38:09.405Z,76.58
2023-04-10T13:40:37.870Z,76.92
2023-04-10T13:43:06.227Z,76.99
2023-04-10T13:45:34.826Z,76.72
2023-04-10T13:48:03.812Z,76.59
2023-04-10T13:50:31.901Z,76.10
2023-04-10T13:52:59.701Z,76.31
2023-04-10T13:55:27.407Z,75.55
2023-04-10T13:57:55.155Z,75.22
2023-04-10T14:00:23.228Z,75.41
2023-04-10T14:02:51.087Z,75.62
2023-04-10T14:05:19.167Z,75.15
2023-04-10T14:07:47.092Z,74.94
2023-04-10T14:10:14.768Z,75.17
2023-04-10T14:12:42.617Z,74.68
2023-04-10T14:15:12.832Z,74.62
2023-04-10T14:17:40.731Z,74.60
2023-04-10T14:20:11.309Z,74.68
2023-04-10T14:22:39.195Z,74.21
2023-04-10T14:25:13.193Z,73.93
2023-04-10T14:27:42.586Z,73.70
2023-04-10T14:30:10.718Z,73.51
2023-04-10T14:32:39.372Z,73.29
2023-04-10T14:35:07.817Z,73.16
2023-04-10T14:37:35.713Z,73.03
2023-04-10T14:40:04.897Z,73.06
2023-04-10T14:42:32.848Z,72.73
2023-04-10T14:45:00.622Z,71.78
2023-04-10T14:47:28.430Z,70.41
2023-04-10T14:49:56.240Z,69.09
2023-04-10T14:52:23.922Z,69.14
2023-04-10T14:54:51.668Z,69.21
2023-04-10T14:57:19.368Z,68.68
2023-04-10T14:59:47.128Z,69.04
2023-04-10T15:02:15.352Z,68.63
2023-04-10T15:04:43.195Z,68.67
2023-04-10T15:07:10.950Z,68.02
2023-04-10T15:09:38.632Z,68.41
2023-04-10T15:12:06.690Z,67.87
2023-04-10T15:14:34.545Z,66.90
2023-04-10T15:17:02.270Z,67.04
2023-04-10T15:19:30.387Z,66.59
2023-04-10T15:21:58.537Z,66.21
2023-04-10T15:24:27.129Z,65.98
2023-04-10T15:26:57.667Z,66.17
2023-04-10T15:29:25.415Z,66.02
2023-04-10T15:31:53.117Z,64.88
2023-04-10T15:34:20.735Z,64.69
2023-04-10T15:36:48.458Z,64.49
2023-04-10T15:39:16.391Z,64.27
2023-04-10T15:41:44.251Z,63.40
2023-04-10T15:44:11.937Z,61.89
2023-04-10T15:46:39.681Z,61.69
2023-04-10T15:49:07.470Z,61.42
2023-04-10T15:51:35.430Z,60.98
2023-04-10T15:54:04.841Z,60.39
2023-04-10T15:56:33.389Z,59.93
2023-04-10T15:59:01.546Z,60.04
2023-04-10T16:01:29.388Z,59.70
2023-04-10T16:03:57.431Z,59.13
2023-04-10T16:06:27.730Z,58.50
2023-04-10T16:08:55.456Z,57.85
2023-04-10T16:11:23.547Z,57.45
2023-04-10T16:13:51.330Z,57.40
2023-04-10T16:16:19.465Z,57.26
2023-04-10T16:18:47.703Z,57.09
2023-04-10T16:21:15.998Z,56.71
2023-04-10T16:23:43.831Z,56.32
2023-04-10T16:26:11.729Z,56.14
2023-04-10T16:28:39.765Z,56.19
2023-04-10T16:31:08.151Z,56.47
2023-04-10T16:33:36.146Z,56.55
2023-04-10T16:36:04.706Z,56.32
2023-04-10T16:38:35.774Z,55.96
2023-04-10T16:41:04.567Z,56.09
2023-04-10T16:43:32.461Z,56.02
2023-04-10T16:46:00.288Z,56.05
2023-04-10T16:48:28.088Z,56.21
2023-04-10T16:50:58.789Z,56.45
2023-04-10T16:53:26.482Z,56.67
2023-04-10T16:55:59.052Z,57.01
2023-04-10T16:58:28.090Z,57.19
2023-04-10T17:00:55.812Z,57.36
2023-04-10T17:03:23.605Z,57.49
2023-04-10T17:05:51.683Z,57.55
2023-04-10T17:08:19.341Z,57.88
2023-04-10T17:10:47.056Z,58.16
2023-04-10T17:13:14.828Z,58.01
2023-04-10T17:15:42.580Z,57.97
2023-04-10T17:18:11.210Z,58.01
2023-04-10T17:20:39.134Z,58.06
2023-04-10T17:23:07.157Z,57.90
2023-04-10T17:25:38.569Z,58.04
2023-04-10T17:28:06.441Z,57.93
2023-04-10T17:30:34.154Z,57.89
2023-04-10T17:33:01.875Z,57.94
2023-04-10T17:35:29.728Z,57.93
2023-04-10T17:37:57.404Z,58.04
2023-04-10T17:40:25.151Z,58.15
2023-04-10T17:42:53.025Z,58.26
2023-04-10T17:45:20.944Z,58.38
2023-04-10T17:47:48.681Z,58.68
2023-04-10T17:50:16.729Z,59.02
2023-04-10T17:52:44.534Z,59.22
2023-04-10T17:55:18.342Z,59.35
2023-04-10T17:57:49.087Z,59.37
2023-04-10T18:00:20.551Z,59.38
2023-04-10T18:02:57.869Z,59.45
2023-04-10T18:05:37.417Z,59.61
2023-04-10T18:08:06.205Z,59.70
2023-04-10T18:10:34.529Z,59.78
2023-04-10T18:13:02.603Z,59.79
2023-04-10T18:15:30.615Z,59.96
2023-04-10T18:17:58.592Z,60.16
2023-04-10T18:20:26.685Z,60.39
2023-04-10T18:22:54.528Z,60.69
2023-04-10T18:25:22.269Z,61.04
2023-04-10T18:28:09.637Z,61.35
2023-04-10T18:30:39.050Z,61.54
2023-04-10T18:33:10.658Z,61.87
2023-04-10T18:35:39.349Z,62.18
2023-04-10T18:38:07.309Z,62.34
2023-04-10T18:40:36.810Z,62.69
2023-04-10T18:43:05.120Z,62.86
2023-04-10T18:45:34.852Z,63.12
2023-04-10T18:48:03.238Z,63.24
2023-04-10T18:50:34.074Z,63.45
2023-04-10T18:53:01.920Z,63.71
2023-04-10T18:55:29.886Z,63.96
2023-04-10T18:57:57.928Z,64.16
2023-04-10T19:00:25.939Z,64.21
2023-04-10T19:02:54.543Z,64.39
2023-04-10T19:05:22.866Z,64.49
2023-04-10T19:08:03.120Z,64.58
2023-04-10T19:10:36.980Z,64.56
2023-04-10T19:13:04.836Z,64.83
2023-04-10T19:15:32.872Z,64.97
2023-04-10T19:18:01.042Z,65.03
2023-04-10T19:20:49.012Z,65.18
2023-04-10T19:23:16.697Z,65.35
2023-04-10T19:25:44.757Z,65.52
2023-04-10T19:28:12.446Z,65.68
2023-04-10T19:30:40.150Z,65.86
2023-04-10T19:33:07.902Z,66.14
2023-04-10T19:35:35.661Z,66.44
2023-04-10T19:38:03.415Z,66.59
2023-04-10T19:40:32.080Z,66.70
2023-04-10T19:43:01.914Z,67.06
2023-04-10T19:45:32.099Z,67.34
2023-04-10T19:48:00.519Z,67.50
2023-04-10T19:50:30.053Z,67.70
2023-04-10T19:52:58.077Z,67.90
2023-04-10T19:55:26.461Z,68.05
2023-04-10T19:57:54.845Z,68.19
2023-04-10T20:00:22.622Z,68.42
2023-04-10T20:02:50.456Z,68.68
2023-04-10T20:05:18.586Z,68.74
2023-04-10T20:07:46.697Z,68.96
2023-04-10T20:10:14.393Z,69.15
2023-04-10T20:12:42.125Z,69.30
2023-04-10T20:15:10.255Z,69.40
2023-04-10T20:17:38.580Z,69.58
2023-04-10T20:20:06.761Z,69.81
2023-04-10T20:22:34.382Z,69.96
2023-04-10T20:25:02.106Z,70.09
2023-04-10T20:27:29.789Z,70.25
2023-04-10T20:29:57.488Z,70.51
2023-04-10T20:32:25.399Z,70.88
2023-04-10T20:34:53.200Z,70.89
2023-04-10T20:37:21.948Z,71.19
2023-04-10T20:39:50.767Z,71.14
2023-04-10T20:42:18.805Z,71.27
2023-04-10T20:44:46.551Z,71.35
2023-04-10T20:47:14.274Z,71.53
2023-04-10T20:49:42.114Z,71.63
2023-04-10T20:52:09.796Z,71.76
2023-04-10T20:54:37.469Z,71.86
2023-04-10T20:57:05.914Z,72.05
2023-04-10T20:59:35.619Z,72.16
2023-04-10T21:02:03.829Z,72.18
2023-04-10T21:04:32.692Z,72.29
2023-04-10T21:07:00.363Z,72.44
2023-04-10T21:09:28.094Z,72.59
2023-04-10T21:11:55.773Z,72.88
2023-04-10T21:14:23.429Z,73.03
2023-04-10T21:16:51.267Z,73.15
2023-04-10T21:19:19.112Z,73.38
2023-04-10T21:21:46.782Z,73.37
2023-04-10T21:24:14.494Z,73.30
2023-04-10T21:26:42.219Z,73.36
2023-04-10T21:29:09.980Z,73.49
2023-04-10T21:31:37.767Z,73.34
2023-04-10T21:34:05.662Z,73.31
2023-04-10T21:36:33.441Z,73.50
2023-04-10T21:39:01.419Z,73.79
2023-04-10T21:41:29.163Z,73.95
2023-04-10T21:44:00.213Z,73.76
2023-04-10T21:46:27.964Z,73.69
2023-04-10T21:48:55.998Z,73.88
2023-04-10T21:51:25.738Z,73.87
2023-04-10T21:53:54.632Z,73.97
2023-04-10T21:56:22.343Z,74.19
2023-04-10T21:58:50.129Z,74.25
2023-04-10T22:01:17.861Z,74.32
2023-04-10T22:03:45.665Z,74.39
2023-04-10T22:06:13.504Z,74.59
2023-04-10T22:08:41.268Z,74.63
2023-04-10T22:11:08.986Z,74.92
2023-04-10T22:13:36.694Z,74.93
2023-04-10T22:16:05.677Z,75.03
2023-04-10T22:18:33.451Z,75.24
2023-04-10T22:21:01.215Z,75.40
2023-04-10T22:23:28.955Z,75.36
2023-04-10T22:25:59.088Z,75.41
2023-04-10T22:28:27.558Z,75.52
2023-04-10T22:30:55.367Z,75.68
2023-04-10T22:33:23.128Z,75.85
2023-04-10T22:35:52.434Z,75.90
2023-04-10T22:38:20.250Z,75.99
2023-04-10T22:40:47.967Z,76.16
2023-04-10T22:43:15.819Z,76.32
2023-04-10T22:45:43.462Z,76.53
2023-04-10T22:48:11.189Z,76.49
2023-04-10T22:50:39.010Z,76.58
2023-04-10T22:53:06.752Z,76.69
2023-04-10T22:55:36.899Z,76.77
2023-04-10T22:58:04.744Z,76.78
2023-04-10T23:00:35.489Z,76.80
2023-04-10T23:03:03.559Z,76.89
2023-04-10T23:05:33.013Z,76.98
2023-04-10T23:08:00.859Z,76.95
2023-04-10T23:10:28.583Z,77.13
2023-04-10T23:12:56.268Z,77.07
2023-04-10T23:15:23.953Z,77.03
2023-04-10T23:17:51.693Z,77.05
2023-04-10T23:20:19.571Z,77.16
2023-04-10T23:22:47.279Z,77.20
2023-04-10T23:25:15.601Z,77.39
2023-04-10T23:27:43.330Z,77.74
2023-04-10T23:30:11.379Z,77.78
2023-04-10T23:32:39.055Z,77.71
2023-04-10T23:35:06.993Z,77.85
2023-04-10T23:37:35.244Z,77.85
2023-04-10T23:40:02.963Z,77.43
2023-04-10T23:42:31.224Z,77.47
2023-04-10T23:44:58.852Z,77.53
2023-04-10T23:47:26.833Z,77.75
2023-04-10T23:49:54.890Z,77.67
2023-04-10T23:52:22.505Z,77.84
2023-04-10T23:54:50.436Z,77.91
2023-04-10T23:57:18.177Z,78.05
2023-04-10T23:59:46.678Z,78.23
